createdAt,value
2023-02-23T00:00:23.269Z,33.88
2023-02-23T00:03:26.126Z,33.78
2023-02-23T00:06:31.179Z,33.84
2023-02-23T00:09:36.259Z,33.87
2023-02-23T00:12:39.421Z,33.76
2023-02-23T00:15:42.244Z,33.80
2023-02-23T00:18:48.349Z,33.70
2023-02-23T00:21:52.971Z,33.75
2023-02-23T00:24:57.598Z,33.65
2023-02-23T00:28:00.380Z,33.62
2023-02-23T00:31:04.120Z,33.47
2023-02-23T00:34:07.714Z,33.54
2023-02-23T00:37:12.358Z,33.57
2023-02-23T00:40:16.809Z,33.68
2023-02-23T00:43:20.162Z,33.75
2023-02-23T00:46:24.216Z,33.64
2023-02-23T00:49:27.280Z,33.75
2023-02-23T00:52:31.508Z,33.69
2023-02-23T00:55:34.273Z,33.62
2023-02-23T00:58:37.133Z,33.70
2023-02-23T01:01:41.931Z,33.65
2023-02-23T01:04:44.764Z,33.56
2023-02-23T01:07:49.352Z,33.62
2023-02-23T01:10:53.816Z,33.63
2023-02-23T01:13:58.465Z,33.76
2023-02-23T01:17:01.401Z,33.77
2023-02-23T01:20:13.280Z,33.85
2023-02-23T01:23:19.283Z,33.73
2023-02-23T01:26:23.837Z,33.85
2023-02-23T01:29:26.602Z,33.79
2023-02-23T01:32:29.572Z,33.61
2023-02-23T01:35:33.281Z,33.95
2023-02-23T01:38:37.586Z,33.59
2023-02-23T01:41:42.565Z,33.56
2023-02-23T01:45:03.864Z,33.51
2023-02-23T01:48:08.406Z,33.68
2023-02-23T01:51:13.418Z,33.50
2023-02-23T01:54:21.045Z,33.51
2023-02-23T01:57:27.158Z,33.58
2023-02-23T02:00:31.993Z,33.57
2023-02-23T02:03:36.325Z,33.79
2023-02-23T02:06:40.101Z,33.57
2023-02-23T02:10:04.683Z,33.70
2023-02-23T02:13:08.532Z,33.60
2023-02-23T02:16:21.867Z,33.80
2023-02-23T02:19:44.114Z,33.78
2023-02-23T02:23:09.790Z,33.96
2023-02-23T02:26:21.014Z,33.92
2023-02-23T02:29:50.736Z,34.22
2023-02-23T02:33:14.351Z,34.10
2023-02-23T02:36:26.769Z,34.06
2023-02-23T02:39:38.365Z,34.01
2023-02-23T02:42:46.985Z,34.35
2023-02-23T02:45:52.141Z,34.28
2023-02-23T02:48:59.413Z,34.32
2023-02-23T02:52:06.104Z,34.43
2023-02-23T02:55:14.173Z,34.34
2023-02-23T02:58:18.990Z,34.49
2023-02-23T03:01:39.131Z,34.89
2023-02-23T03:04:59.575Z,34.45
2023-02-23T03:08:28.002Z,34.56
2023-02-23T03:11:54.132Z,34.67
2023-02-23T03:15:19.575Z,35.12
2023-02-23T03:18:49.093Z,35.06
2023-02-23T03:22:11.487Z,34.95
2023-02-23T03:25:34.414Z,34.97
2023-02-23T03:28:58.646Z,35.29
2023-02-23T03:32:23.286Z,35.20
2023-02-23T03:35:45.844Z,35.40
2023-02-23T03:39:11.865Z,35.53
2023-02-23T03:42:34.884Z,35.40
2023-02-23T03:45:57.432Z,35.68
2023-02-23T03:49:20.578Z,35.29
2023-02-23T03:52:43.645Z,35.76
2023-02-23T03:56:08.124Z,35.74
2023-02-23T03:59:29.501Z,35.69
2023-02-23T04:02:53.371Z,35.80
2023-02-23T04:06:14.870Z,35.84
2023-02-23T04:09:35.316Z,36.12
2023-02-23T04:12:58.684Z,36.06
2023-02-23T04:16:01.313Z,35.87
2023-02-23T04:19:05.535Z,35.88
2023-02-23T04:22:08.329Z,35.90
2023-02-23T04:25:12.548Z,35.58
2023-02-23T04:28:16.000Z,35.68
2023-02-23T04:31:19.153Z,35.55
2023-02-23T04:34:23.566Z,35.67
2023-02-23T04:37:26.344Z,35.84
2023-02-23T04:40:29.377Z,35.66
2023-02-23T04:43:32.126Z,35.56
2023-02-23T04:46:34.907Z,35.78
2023-02-23T04:49:39.261Z,35.59
2023-02-23T04:52:42.207Z,35.51
2023-02-23T04:55:47.111Z,35.30
2023-02-23T04:58:50.547Z,35.59
2023-02-23T05:01:53.376Z,35.49
2023-02-23T05:04:57.572Z,35.26
2023-02-23T05:08:01.132Z,35.05
2023-02-23T05:11:03.860Z,35.07
2023-02-23T05:14:06.735Z,34.82
2023-02-23T05:17:09.539Z,34.67
2023-02-23T05:20:15.010Z,34.56
2023-02-23T05:23:17.808Z,34.04
2023-02-23T05:26:20.953Z,34.01
2023-02-23T05:29:24.157Z,34.02
2023-02-23T05:32:26.990Z,33.82
2023-02-23T05:35:31.599Z,33.78
2023-02-23T05:38:34.382Z,33.73
2023-02-23T05:41:37.158Z,33.69
2023-02-23T05:44:39.895Z,33.64
2023-02-23T05:47:42.636Z,33.60
2023-02-23T05:50:46.761Z,33.49
2023-02-23T05:53:49.540Z,33.49
2023-02-23T05:56:52.345Z,33.47
2023-02-23T05:59:55.103Z,33.33
2023-02-23T06:02:57.970Z,33.26
2023-02-23T06:06:02.135Z,33.29
2023-02-23T06:09:04.978Z,33.03
2023-02-23T06:12:09.141Z,33.37
2023-02-23T06:15:12.277Z,33.51
2023-02-23T06:18:15.579Z,33.58
2023-02-23T06:21:19.877Z,33.61
2023-02-23T06:24:23.702Z,33.69
2023-02-23T06:27:27.021Z,33.77
2023-02-23T06:30:30.003Z,33.80
2023-02-23T06:33:32.830Z,33.67
2023-02-23T06:36:37.199Z,33.77
2023-02-23T06:39:39.938Z,33.72
2023-02-23T06:42:42.696Z,33.81
2023-02-23T06:45:47.175Z,34.09
2023-02-23T06:48:50.057Z,33.87
2023-02-23T06:51:54.208Z,34.09
2023-02-23T06:54:57.097Z,34.02
2023-02-23T06:57:59.818Z,34.10
2023-02-23T07:01:02.712Z,34.04
2023-02-23T07:04:05.769Z,34.20
2023-02-23T07:07:10.034Z,34.19
2023-02-23T07:10:13.456Z,34.20
2023-02-23T07:13:16.562Z,34.26
2023-02-23T07:16:19.362Z,34.15
2023-02-23T07:19:23.484Z,34.17
2023-02-23T07:22:30.599Z,34.12
2023-02-23T07:25:33.528Z,34.24
2023-02-23T07:28:37.075Z,34.19
2023-02-23T07:31:40.055Z,34.32
2023-02-23T07:34:42.932Z,34.23
2023-02-23T07:37:47.083Z,34.12
2023-02-23T07:40:51.165Z,34.38
2023-02-23T07:43:53.929Z,34.30
2023-02-23T07:46:56.732Z,34.42
2023-02-23T07:50:00.695Z,34.44
2023-02-23T07:53:04.865Z,34.37
2023-02-23T07:56:08.684Z,34.46
2023-02-23T07:59:11.458Z,34.47
2023-02-23T08:02:14.805Z,34.35
2023-02-23T08:05:17.700Z,34.30
2023-02-23T08:08:22.025Z,34.30
2023-02-23T08:11:24.860Z,34.39
2023-02-23T08:14:28.822Z,34.42
2023-02-23T08:17:31.586Z,34.36
2023-02-23T08:20:34.568Z,34.30
2023-02-23T08:23:38.693Z,34.33
2023-02-23T08:26:41.444Z,34.42
2023-02-23T08:29:44.220Z,34.29
2023-02-23T08:32:47.221Z,34.31
2023-02-23T08:35:49.992Z,34.38
2023-02-23T08:38:54.608Z,34.25
2023-02-23T08:41:57.442Z,34.17
2023-02-23T08:45:01.550Z,34.30
2023-02-23T08:48:04.374Z,34.25
2023-02-23T08:51:07.603Z,34.18
2023-02-23T08:54:14.760Z,34.21
2023-02-23T08:57:17.787Z,34.24
2023-02-23T09:00:21.252Z,34.24
2023-02-23T09:03:25.989Z,34.11
2023-02-23T09:06:28.879Z,33.93
2023-02-23T09:09:34.257Z,33.70
2023-02-23T09:12:37.068Z,33.62
2023-02-23T09:15:40.737Z,33.49
2023-02-23T09:18:43.945Z,33.28
2023-02-23T09:21:46.856Z,33.23
2023-02-23T09:24:51.119Z,33.00
2023-02-23T09:27:54.515Z,32.91
2023-02-23T09:30:57.829Z,32.81
2023-02-23T09:34:01.890Z,32.71
2023-02-23T09:37:05.148Z,32.67
2023-02-23T09:40:11.122Z,32.60
2023-02-23T09:43:15.466Z,32.61
2023-02-23T09:46:27.186Z,32.57
2023-02-23T09:49:33.472Z,32.52
2023-02-23T09:52:40.699Z,32.29
2023-02-23T09:55:45.918Z,32.36
2023-02-23T09:58:49.606Z,32.29
2023-02-23T10:01:59.828Z,32.31
2023-02-23T10:05:04.988Z,32.29
2023-02-23T10:08:09.120Z,32.33
2023-02-23T10:11:19.440Z,32.36
2023-02-23T10:14:27.144Z,32.21
2023-02-23T10:17:35.728Z,32.21
2023-02-23T10:20:43.930Z,32.20
2023-02-23T10:23:49.378Z,32.19
2023-02-23T10:26:55.336Z,32.25
2023-02-23T10:30:00.343Z,32.27
2023-02-23T10:33:06.786Z,32.18
2023-02-23T10:36:14.156Z,32.27
2023-02-23T10:39:16.999Z,31.46
2023-02-23T10:42:22.953Z,31.29
2023-02-23T10:45:27.499Z,32.03
2023-02-23T10:48:33.059Z,32.62
2023-02-23T10:51:38.410Z,33.01
2023-02-23T10:54:44.738Z,33.46
2023-02-23T10:57:48.907Z,33.64
2023-02-23T11:00:52.656Z,34.08
2023-02-23T11:04:05.637Z,33.95
2023-02-23T11:07:09.668Z,34.35
2023-02-23T11:10:31.091Z,34.04
2023-02-23T11:13:45.596Z,34.39
2023-02-23T11:16:48.468Z,34.41
2023-02-23T11:19:51.250Z,33.07
2023-02-23T11:22:58.930Z,35.51
2023-02-23T11:26:04.946Z,33.89
2023-02-23T11:29:16.260Z,34.78
2023-02-23T11:32:21.179Z,35.28
2023-02-23T11:35:29.723Z,35.63
2023-02-23T11:38:35.303Z,35.07
2023-02-23T11:41:38.208Z,35.01
2023-02-23T11:44:42.587Z,34.96
2023-02-23T11:47:49.455Z,34.10
2023-02-23T11:50:53.931Z,34.22
2023-02-23T11:53:57.037Z,33.99
2023-02-23T11:57:02.703Z,34.03
2023-02-23T12:00:13.266Z,34.20
2023-02-23T12:03:23.013Z,33.84
2023-02-23T12:06:30.548Z,34.00
2023-02-23T12:09:36.861Z,33.55
2023-02-23T12:12:43.728Z,33.93
2023-02-23T12:15:51.435Z,33.79
2023-02-23T12:18:58.064Z,33.87
2023-02-23T12:22:04.833Z,33.77
2023-02-23T12:25:12.475Z,33.74
2023-02-23T12:28:20.087Z,33.77
2023-02-23T12:31:26.546Z,33.88
2023-02-23T12:34:31.767Z,34.06
2023-02-23T12:37:38.770Z,33.76
2023-02-23T12:40:44.271Z,33.74
2023-02-23T12:43:51.692Z,33.82
2023-02-23T12:46:56.940Z,33.69
2023-02-23T12:50:07.365Z,33.67
2023-02-23T12:53:18.781Z,33.63
2023-02-23T12:56:42.463Z,33.39
2023-02-23T13:00:20.517Z,33.31
2023-02-23T13:03:41.478Z,33.43
2023-02-23T13:06:51.855Z,33.31
2023-02-23T13:10:03.812Z,32.81
2023-02-23T13:13:16.338Z,30.67
2023-02-23T13:16:25.081Z,32.78
2023-02-23T13:19:31.009Z,32.87
2023-02-23T13:22:38.818Z,32.44
2023-02-23T13:25:46.138Z,32.82
2023-02-23T13:28:56.670Z,32.64
2023-02-23T13:32:00.769Z,31.68
2023-02-23T13:35:04.632Z,31.58
2023-02-23T13:38:16.283Z,32.75
2023-02-23T13:41:29.122Z,32.85
2023-02-23T13:44:35.382Z,32.96
2023-02-23T13:47:45.522Z,32.82
2023-02-23T13:50:52.385Z,32.83
2023-02-23T13:54:03.405Z,32.60
2023-02-23T13:57:13.500Z,32.68
2023-02-23T14:00:18.062Z,32.55
2023-02-23T14:03:23.629Z,32.53
2023-02-23T14:06:27.901Z,32.55
2023-02-23T14:09:33.530Z,32.57
2023-02-23T14:12:38.738Z,32.57
2023-02-23T14:15:43.602Z,32.83
2023-02-23T14:18:58.059Z,32.38
2023-02-23T14:22:03.901Z,32.37
2023-02-23T14:25:25.042Z,32.46
2023-02-23T14:28:35.319Z,32.37
2023-02-23T14:31:38.478Z,32.57
2023-02-23T14:34:45.893Z,32.55
2023-02-23T14:37:56.429Z,32.69
2023-02-23T14:41:02.160Z,32.73
2023-02-23T14:44:17.194Z,32.61
2023-02-23T14:47:27.594Z,32.91
2023-02-23T14:50:31.333Z,32.83
2023-02-23T14:53:34.194Z,32.67
2023-02-23T14:56:46.890Z,32.64
2023-02-23T14:59:55.243Z,33.17
2023-02-23T15:02:59.481Z,33.08
2023-02-23T15:06:02.326Z,33.35
2023-02-23T15:09:05.335Z,33.67
2023-02-23T15:12:13.311Z,33.84
2023-02-23T15:15:18.620Z,33.80
2023-02-23T15:18:23.436Z,33.48
2023-02-23T15:21:26.509Z,33.41
2023-02-23T15:24:32.137Z,33.69
2023-02-23T15:27:43.130Z,33.58
2023-02-23T15:30:48.434Z,33.40
2023-02-23T15:33:51.876Z,33.47
2023-02-23T15:36:58.163Z,33.25
2023-02-23T15:40:02.556Z,33.42
2023-02-23T15:43:05.330Z,33.13
2023-02-23T15:46:11.191Z,33.46
2023-02-23T15:49:17.413Z,33.50
2023-02-23T15:52:23.328Z,33.34
2023-02-23T15:55:28.112Z,33.33
2023-02-23T15:58:32.363Z,33.32
2023-02-23T16:01:42.965Z,33.11
2023-02-23T16:04:48.860Z,32.96
2023-02-23T16:08:06.159Z,33.25
2023-02-23T16:11:12.040Z,33.11
2023-02-23T16:14:17.317Z,33.20
2023-02-23T16:17:29.102Z,33.16
2023-02-23T16:20:36.358Z,33.12
2023-02-23T16:23:44.671Z,32.94
2023-02-23T16:26:50.520Z,33.07
2023-02-23T16:29:57.560Z,32.84
2023-02-23T16:33:06.127Z,32.83
2023-02-23T16:36:20.504Z,32.97
2023-02-23T16:39:25.542Z,33.05
2023-02-23T16:42:29.579Z,33.11
2023-02-23T16:45:32.413Z,32.93
2023-02-23T16:48:39.674Z,32.85
2023-02-23T16:51:42.471Z,33.07
2023-02-23T16:54:47.672Z,32.97
2023-02-23T16:57:51.809Z,33.04
2023-02-23T17:00:54.868Z,32.91
2023-02-23T17:03:59.264Z,33.04
2023-02-23T17:07:02.087Z,32.89
2023-02-23T17:10:05.866Z,32.76
2023-02-23T17:13:09.329Z,33.01
2023-02-23T17:16:12.843Z,32.86
2023-02-23T17:19:18.775Z,32.81
2023-02-23T17:22:21.525Z,33.00
2023-02-23T17:25:26.647Z,33.08
2023-02-23T17:28:29.450Z,33.00
2023-02-23T17:31:32.834Z,33.13
2023-02-23T17:34:37.110Z,33.19
2023-02-23T17:37:40.153Z,33.28
2023-02-23T17:40:44.180Z,33.32
2023-02-23T17:43:47.156Z,33.47
2023-02-23T17:46:50.017Z,33.77
2023-02-23T17:49:54.464Z,34.05
2023-02-23T17:52:57.371Z,34.04
2023-02-23T17:56:00.511Z,34.16
2023-02-23T17:59:03.363Z,34.20
2023-02-23T18:02:06.837Z,34.15
2023-02-23T18:05:11.511Z,34.13
2023-02-23T18:08:14.784Z,34.36
2023-02-23T18:11:19.886Z,34.25
2023-02-23T18:14:23.183Z,34.24
2023-02-23T18:17:26.007Z,34.46
2023-02-23T18:20:30.430Z,34.37
2023-02-23T18:23:35.973Z,34.29
2023-02-23T18:26:39.141Z,34.05
2023-02-23T18:29:41.957Z,34.03
2023-02-23T18:32:44.856Z,33.90
2023-02-23T18:35:49.029Z,33.99
2023-02-23T18:38:51.921Z,33.67
2023-02-23T18:41:54.659Z,33.54
2023-02-23T18:44:57.411Z,33.51
2023-02-23T18:48:00.149Z,33.36
2023-02-23T18:51:05.890Z,33.24
2023-02-23T18:54:11.866Z,33.33
2023-02-23T18:57:14.725Z,33.63
2023-02-23T19:00:18.113Z,33.63
2023-02-23T19:03:20.910Z,34.02
2023-02-23T19:06:25.195Z,34.52
2023-02-23T19:09:27.899Z,34.24
2023-02-23T19:12:30.807Z,34.34
2023-02-23T19:15:33.611Z,34.22
2023-02-23T19:18:36.817Z,34.92
2023-02-23T19:21:41.269Z,34.66
2023-02-23T19:24:43.976Z,34.87
2023-02-23T19:27:46.861Z,34.82
2023-02-23T19:30:49.583Z,34.80
2023-02-23T19:33:53.357Z,34.78
2023-02-23T19:36:57.456Z,34.63
2023-02-23T19:40:03.205Z,34.89
2023-02-23T19:43:06.766Z,34.68
2023-02-23T19:46:10.444Z,34.67
2023-02-23T19:49:13.279Z,34.54
2023-02-23T19:52:17.434Z,34.76
2023-02-23T19:55:23.875Z,34.61
2023-02-23T19:58:27.480Z,34.88
2023-02-23T20:01:30.392Z,34.84
2023-02-23T20:04:33.180Z,34.67
2023-02-23T20:07:37.351Z,34.97
2023-02-23T20:10:41.569Z,34.98
2023-02-23T20:13:44.426Z,34.99
2023-02-23T20:16:47.372Z,35.02
2023-02-23T20:19:50.218Z,34.85
2023-02-23T20:22:55.531Z,34.98
2023-02-23T20:25:58.296Z,35.11
2023-02-23T20:29:01.176Z,34.75
2023-02-23T20:32:04.824Z,34.68
2023-02-23T20:35:11.356Z,34.53
2023-02-23T20:38:15.838Z,34.25
2023-02-23T20:41:19.011Z,34.12
2023-02-23T20:44:23.730Z,34.13
2023-02-23T20:47:26.555Z,34.04
2023-02-23T20:50:33.907Z,33.71
2023-02-23T20:53:38.297Z,33.69
2023-02-23T20:56:41.714Z,33.56
2023-02-23T20:59:44.546Z,33.72
2023-02-23T21:02:47.284Z,33.53
2023-02-23T21:05:50.828Z,33.92
2023-02-23T21:09:01.820Z,33.87
2023-02-23T21:12:04.771Z,33.68
2023-02-23T21:15:09.390Z,33.84
2023-02-23T21:18:12.306Z,33.82
2023-02-23T21:21:15.884Z,33.56
2023-02-23T21:24:21.006Z,33.52
2023-02-23T21:27:24.102Z,33.54
2023-02-23T21:30:28.754Z,33.47
2023-02-23T21:33:31.780Z,33.46
2023-02-23T21:36:34.840Z,33.37
2023-02-23T21:39:40.868Z,33.34
2023-02-23T21:42:44.120Z,33.47
2023-02-23T21:45:46.886Z,33.46
2023-02-23T21:48:49.870Z,33.29
2023-02-23T21:51:54.082Z,33.27
2023-02-23T21:54:59.333Z,33.32
2023-02-23T21:58:03.158Z,33.40
2023-02-23T22:01:11.101Z,33.27
2023-02-23T22:04:15.051Z,33.21
2023-02-23T22:07:18.363Z,33.17
2023-02-23T22:10:23.444Z,33.20
2023-02-23T22:13:26.242Z,33.20
2023-02-23T22:16:30.826Z,33.19
2023-02-23T22:19:33.762Z,33.01
2023-02-23T22:22:36.976Z,33.11
2023-02-23T22:25:41.053Z,32.98
2023-02-23T22:28:44.006Z,33.11
2023-02-23T22:31:47.016Z,32.98
2023-02-23T22:34:49.918Z,32.97
2023-02-23T22:37:52.819Z,33.02
2023-02-23T22:40:57.112Z,33.03
2023-02-23T22:43:59.941Z,33.02
2023-02-23T22:47:02.745Z,33.05
2023-02-23T22:50:07.041Z,33.06
2023-02-23T22:53:09.836Z,32.94
2023-02-23T22:56:14.040Z,33.15
2023-02-23T22:59:17.783Z,33.02
2023-02-23T23:02:20.651Z,32.86
2023-02-23T23:05:24.346Z,33.01
2023-02-23T23:08:27.113Z,32.83
2023-02-23T23:11:31.291Z,32.85
2023-02-23T23:14:34.031Z,33.01
2023-02-23T23:17:36.785Z,33.09
2023-02-23T23:20:39.607Z,32.93
2023-02-23T23:23:43.142Z,33.06
2023-02-23T23:26:47.252Z,32.85
2023-02-23T23:29:50.033Z,32.83
2023-02-23T23:32:53.430Z,32.97
2023-02-23T23:35:56.315Z,32.78
2023-02-23T23:38:59.776Z,32.87
2023-02-23T23:42:05.480Z,32.93
2023-02-23T23:45:09.780Z,32.87
2023-02-23T23:48:12.609Z,32.79
2023-02-23T23:51:15.929Z,32.73
2023-02-23T23:54:20.076Z,32.78
2023-02-23T23:57:24.302Z,32.71
